Time;durP1;ratioP1;P1;durP2;ratioP2;P2;SDS_P1;SDS_P2;PMS_P1;PMS_P2;Temp;Humidity;BMP_temperature;BMP_pressure;BME280_temperature;BME280_humidity;BME280_pressure;Samples;Min_cycle;Max_cycle;Signal;HPM_P1;HPM_P2
2021/11/26 00:01:49;;;;;;;24.50;16.07;;;7.60;99.90;;;;;;5018454;28;20827;-36
2021/11/26 00:04:15;;;;;;;30.07;16.57;;;7.70;99.90;;;;;;5028265;28;20202;-36
2021/11/26 00:06:41;;;;;;;29.60;16.40;;;7.70;99.90;;;;;;5021081;28;20213;-36
2021/11/26 00:09:06;;;;;;;29.43;15.73;;;7.60;99.90;;;;;;5016441;28;20979;-36
2021/11/26 00:11:32;;;;;;;26.93;16.83;;;7.70;99.90;;;;;;5023340;28;20603;-36
2021/11/26 00:14:07;;;;;;;33.37;17.90;;;7.50;99.90;;;;;;5009507;28;20278;-36
2021/11/26 00:16:40;;;;;;;29.47;18.40;;;7.40;99.90;;;;;;5020518;28;20482;-36
2021/11/26 00:19:07;;;;;;;31.53;18.43;;;7.30;99.90;;;;;;5009812;28;20436;-36
2021/11/26 00:21:39;;;;;;;33.93;18.60;;;7.50;99.90;;;;;;5010058;28;20825;-36
2021/11/26 00:24:08;;;;;;;32.63;16.90;;;7.20;99.90;;;;;;5013475;28;20531;-36
2021/11/26 00:26:34;;;;;;;30.00;17.63;;;7.30;99.90;;;;;;5021330;28;20423;-36
2021/11/26 00:29:00;;;;;;;38.53;21.00;;;7.20;99.90;;;;;;5009767;28;20461;-36
2021/11/26 00:31:26;;;;;;;30.73;19.67;;;7.20;99.90;;;;;;5015249;28;20462;-36
2021/11/26 00:33:52;;;;;;;40.83;21.13;;;7.20;99.90;;;;;;5007895;28;20253;-36
2021/11/26 00:36:17;;;;;;;36.70;18.80;;;7.30;99.90;;;;;;5009800;28;20203;-36
2021/11/26 00:38:43;;;;;;;39.57;20.03;;;7.00;99.90;;;;;;5015585;28;20433;-36
2021/11/26 00:41:09;;;;;;;34.00;19.17;;;7.20;99.90;;;;;;5016834;28;20584;-36
2021/11/26 00:43:34;;;;;;;36.43;21.17;;;7.10;99.90;;;;;;5017839;28;20207;-36
2021/11/26 00:46:00;;;;;;;35.80;18.97;;;7.00;99.90;;;;;;5022607;28;20175;-37
2021/11/26 00:48:26;;;;;;;36.77;20.10;;;6.80;99.90;;;;;;5019753;28;20273;-36
2021/11/26 00:50:51;;;;;;;37.73;20.70;;;6.80;99.90;;;;;;5012168;28;20542;-36
2021/11/26 00:53:17;;;;;;;33.83;20.30;;;6.90;99.90;;;;;;5014476;28;20195;-36
2021/11/26 00:55:43;;;;;;;37.70;20.13;;;7.00;99.90;;;;;;5013523;28;20206;-36
2021/11/26 00:58:09;;;;;;;36.53;20.10;;;7.10;99.90;;;;;;5011326;28;20277;-36
2021/11/26 01:00:35;;;;;;;35.00;18.50;;;6.90;99.90;;;;;;5010794;28;20662;-36
2021/11/26 01:03:03;;;;;;;41.40;20.67;;;7.10;99.90;;;;;;5017295;28;20552;-36
2021/11/26 01:05:29;;;;;;;32.87;18.47;;;6.70;99.90;;;;;;5009045;28;20736;-36
2021/11/26 01:07:54;;;;;;;36.93;19.97;;;6.80;99.90;;;;;;5014679;28;20469;-36
2021/11/26 01:10:22;;;;;;;34.67;18.53;;;6.90;99.90;;;;;;5017694;28;20405;-36
2021/11/26 01:12:48;;;;;;;36.30;19.50;;;6.60;99.90;;;;;;5016274;28;20191;-36
2021/11/26 01:15:18;;;;;;;37.57;18.93;;;6.70;99.90;;;;;;5008661;28;20426;-36
2021/11/26 01:17:46;;;;;;;33.77;18.90;;;6.70;99.90;;;;;;5014885;28;20422;-36
2021/11/26 01:20:15;;;;;;;37.37;20.77;;;6.80;99.90;;;;;;5008826;28;20422;-36
2021/11/26 01:22:42;;;;;;;35.63;19.30;;;6.90;99.90;;;;;;5012392;28;20441;-36
2021/11/26 01:25:09;;;;;;;38.27;21.10;;;6.90;99.90;;;;;;5018444;28;20414;-36
2021/11/26 01:27:35;;;;;;;31.57;18.37;;;6.80;99.90;;;;;;5025756;28;20999;-36
2021/11/26 01:30:05;;;;;;;31.63;18.57;;;6.70;99.90;;;;;;5009026;28;20480;-36
2021/11/26 01:32:31;;;;;;;32.83;18.37;;;6.90;99.90;;;;;;5010637;28;20420;-36
2021/11/26 01:34:57;;;;;;;34.90;19.97;;;7.00;99.90;;;;;;5007848;28;20501;-36
2021/11/26 01:37:23;;;;;;;30.57;17.10;;;6.90;99.90;;;;;;5008696;28;20191;-36
2021/11/26 01:39:48;;;;;;;32.50;18.13;;;6.60;99.90;;;;;;5017858;28;20197;-36
2021/11/26 01:42:15;;;;;;;32.30;17.20;;;6.90;99.90;;;;;;5019975;28;20195;-36
2021/11/26 01:44:41;;;;;;;33.60;17.60;;;6.80;99.90;;;;;;5013784;28;20590;-36
2021/11/26 01:47:06;;;;;;;35.43;19.83;;;6.80;99.90;;;;;;5028214;28;20416;-36
2021/11/26 01:49:32;;;;;;;26.60;15.20;;;6.90;99.90;;;;;;5021456;28;20286;-36
2021/11/26 01:51:58;;;;;;;32.27;17.33;;;6.80;99.90;;;;;;5007316;28;20190;-36
2021/11/26 01:54:24;;;;;;;27.00;15.73;;;6.70;99.90;;;;;;5014043;28;20183;-36
2021/11/26 01:56:51;;;;;;;26.67;14.63;;;6.60;99.90;;;;;;5018684;28;20454;-36
2021/11/26 01:59:17;;;;;;;25.10;14.77;;;6.60;99.90;;;;;;5006775;28;20195;-36
2021/11/26 02:01:43;;;;;;;27.00;14.97;;;6.60;99.90;;;;;;5014223;28;20471;-36
2021/11/26 02:04:08;;;;;;;28.00;14.80;;;6.60;99.90;;;;;;5007861;28;20310;-36
2021/11/26 02:06:34;;;;;;;24.93;13.93;;;6.40;99.90;;;;;;5007794;28;20191;-36
2021/11/26 02:09:00;;;;;;;27.20;15.40;;;6.50;99.90;;;;;;5015185;28;20210;-36
2021/11/26 02:11:26;;;;;;;23.33;14.60;;;6.40;99.90;;;;;;5017790;28;20672;-36
2021/11/26 02:13:51;;;;;;;27.90;15.30;;;6.50;99.90;;;;;;5019719;28;20195;-36
2021/11/26 02:16:17;;;;;;;24.47;13.73;;;6.50;99.90;;;;;;5010119;28;20190;-36
2021/11/26 02:18:49;;;;;;;26.07;14.10;;;6.60;99.90;;;;;;5009250;28;20194;-36
2021/11/26 02:21:17;;;;;;;31.43;14.50;;;6.20;99.90;;;;;;5007730;28;20237;-36
2021/11/26 02:23:44;;;;;;;22.00;13.57;;;6.10;99.90;;;;;;5014307;28;20504;-36
2021/11/26 02:26:10;;;;;;;22.47;13.80;;;6.40;99.90;;;;;;5024343;28;20457;-36
2021/11/26 02:28:35;;;;;;;23.23;13.60;;;6.30;99.90;;;;;;5007873;28;21199;-36
2021/11/26 02:31:01;;;;;;;24.13;13.90;;;6.30;99.90;;;;;;5007755;28;20191;-36
2021/11/26 02:33:27;;;;;;;22.43;13.40;;;6.30;99.90;;;;;;5018548;28;20211;-36
2021/11/26 02:35:54;;;;;;;21.53;12.03;;;6.50;99.90;;;;;;5007485;28;20670;-36
2021/11/26 02:38:23;;;;;;;23.10;13.93;;;6.50;99.90;;;;;;5008527;28;20194;-36
2021/11/26 02:40:49;;;;;;;25.87;15.00;;;6.50;99.90;;;;;;5007739;28;20842;-36
2021/11/26 02:43:15;;;;;;;25.40;14.20;;;6.30;99.90;;;;;;5016544;28;20824;-36
2021/11/26 02:45:44;;;;;;;23.20;13.30;;;6.50;99.90;;;;;;5021852;28;20432;-36
2021/11/26 02:48:11;;;;;;;29.80;15.60;;;6.30;99.90;;;;;;5019036;28;20434;-36
2021/11/26 02:50:37;;;;;;;25.13;15.30;;;6.50;99.90;;;;;;5006241;28;20786;-36
2021/11/26 02:53:04;;;;;;;31.00;15.70;;;6.60;99.90;;;;;;5006655;28;20528;-36
2021/11/26 02:55:31;;;;;;;32.50;17.17;;;6.40;99.90;;;;;;5014285;28;20426;-36
2021/11/26 02:57:58;;;;;;;35.10;17.90;;;6.30;99.90;;;;;;5021202;28;20444;-36
2021/11/26 03:00:26;;;;;;;37.07;17.10;;;6.20;99.90;;;;;;5011974;28;20472;-36
2021/11/26 03:02:56;;;;;;;31.90;17.63;;;6.30;99.90;;;;;;5009731;28;20988;-36
2021/11/26 03:05:23;;;;;;;35.53;17.80;;;6.50;99.90;;;;;;5007189;28;20443;-36
2021/11/26 03:07:49;;;;;;;33.87;18.20;;;6.50;99.90;;;;;;5006969;28;21002;-36
2021/11/26 03:10:18;;;;;;;31.80;17.40;;;6.30;99.90;;;;;;5014023;28;20437;-36
2021/11/26 03:12:50;;;;;;;33.27;19.93;;;6.50;99.90;;;;;;5020590;28;20783;-36
2021/11/26 03:15:17;;;;;;;33.63;19.23;;;6.40;99.90;;;;;;5007104;28;20529;-36
2021/11/26 03:17:43;;;;;;;36.40;19.83;;;6.30;99.90;;;;;;5016671;28;20511;-36
2021/11/26 03:20:09;;;;;;;38.60;19.30;;;6.60;99.90;;;;;;5009761;28;20481;-36
2021/11/26 03:22:35;;;;;;;37.23;19.60;;;6.30;99.90;;;;;;5005516;28;20436;-36
2021/11/26 03:25:02;;;;;;;34.73;19.60;;;6.30;99.90;;;;;;5015422;28;20528;-36
2021/11/26 03:27:29;;;;;;;36.30;19.13;;;6.30;99.90;;;;;;5016232;28;20186;-36
2021/11/26 03:29:55;;;;;;;33.97;20.13;;;6.50;99.90;;;;;;5006839;28;20739;-36
2021/11/26 03:32:21;;;;;;;33.20;19.43;;;6.50;99.90;;;;;;5012343;28;20421;-36
2021/11/26 03:34:47;;;;;;;34.90;19.10;;;6.20;99.90;;;;;;5009322;28;20198;-36
2021/11/26 03:37:12;;;;;;;38.30;21.23;;;6.30;99.90;;;;;;5006937;28;20433;-36
2021/11/26 03:39:38;;;;;;;39.10;21.07;;;6.40;99.90;;;;;;5014559;28;20274;-36
2021/11/26 03:42:04;;;;;;;32.20;19.57;;;6.20;99.90;;;;;;5022852;28;20182;-36
2021/11/26 03:44:30;;;;;;;37.23;21.80;;;6.20;99.90;;;;;;5025160;28;20211;-36
2021/11/26 03:46:56;;;;;;;35.90;19.93;;;6.30;99.90;;;;;;5026618;28;20496;-36
2021/11/26 03:49:21;;;;;;;37.87;20.80;;;6.40;99.90;;;;;;5021297;28;20575;-36
2021/11/26 03:51:47;;;;;;;36.40;20.30;;;6.20;99.90;;;;;;5006794;28;20367;-36
2021/11/26 03:54:13;;;;;;;34.67;19.77;;;6.30;99.90;;;;;;5009676;28;20460;-36
2021/11/26 03:56:39;;;;;;;35.10;21.43;;;6.20;99.90;;;;;;5019422;28;20210;-36
2021/11/26 03:59:06;;;;;;;34.13;20.43;;;6.50;99.90;;;;;;5016015;28;20309;-36
2021/11/26 04:01:33;;;;;;;32.47;19.30;;;6.40;99.90;;;;;;5006909;28;20485;-36
2021/11/26 04:03:59;;;;;;;30.63;18.77;;;6.20;99.90;;;;;;5018165;28;20497;-36
2021/11/26 04:06:24;;;;;;;34.57;19.53;;;6.20;99.90;;;;;;5009713;28;20950;-36
2021/11/26 04:08:50;;;;;;;37.27;20.73;;;6.40;99.90;;;;;;5013195;28;20433;-36
2021/11/26 04:11:16;;;;;;;36.03;20.80;;;6.30;99.90;;;;;;5016886;28;20194;-36
2021/11/26 04:13:41;;;;;;;35.10;20.47;;;6.30;99.90;;;;;;5018306;28;20425;-36
2021/11/26 04:16:12;;;;;;;33.03;20.37;;;6.30;99.90;;;;;;5009984;28;20229;-36
2021/11/26 04:18:39;;;;;;;33.80;21.80;;;6.10;99.90;;;;;;5018295;28;20294;-36
2021/11/26 04:21:05;;;;;;;34.53;19.77;;;5.90;99.90;;;;;;5009675;28;20456;-36
2021/11/26 04:23:31;;;;;;;30.40;18.87;;;6.00;99.90;;;;;;5007923;28;20469;-36
2021/11/26 04:25:57;;;;;;;38.23;20.27;;;6.10;99.90;;;;;;5022800;28;20193;-36
2021/11/26 04:28:23;;;;;;;31.83;22.57;;;6.10;99.90;;;;;;5014243;28;20472;-36
2021/11/26 04:30:49;;;;;;;37.27;20.97;;;6.10;99.90;;;;;;5017879;28;20742;-36
2021/11/26 04:33:15;;;;;;;32.43;19.47;;;6.20;99.90;;;;;;5013016;28;20640;-36
2021/11/26 04:35:41;;;;;;;35.23;21.27;;;6.40;99.90;;;;;;5009838;28;20437;-36
2021/11/26 04:38:06;;;;;;;38.03;19.77;;;6.30;99.90;;;;;;5008252;28;20198;-36
2021/11/26 04:40:32;;;;;;;36.90;20.77;;;6.50;99.90;;;;;;5020843;28;20308;-36
2021/11/26 04:42:58;;;;;;;31.73;21.20;;;6.30;99.90;;;;;;5023036;28;20214;-36
2021/11/26 04:45:24;;;;;;;33.20;21.87;;;6.30;99.90;;;;;;5029295;28;20503;-36
2021/11/26 04:47:49;;;;;;;37.33;21.77;;;6.10;99.90;;;;;;5023405;28;20236;-36
2021/11/26 04:50:16;;;;;;;32.23;20.23;;;6.30;99.90;;;;;;5009649;28;20198;-36
2021/11/26 04:52:42;;;;;;;27.70;19.90;;;6.20;99.90;;;;;;5009073;28;20208;-36
2021/11/26 04:55:09;;;;;;;29.00;19.67;;;6.00;99.90;;;;;;5011593;28;21016;-36
2021/11/26 04:57:35;;;;;;;30.80;20.27;;;6.20;99.90;;;;;;5011064;28;20191;-36
2021/11/26 05:00:03;;;;;;;34.53;22.57;;;6.10;99.90;;;;;;5013791;28;20864;-36
2021/11/26 05:02:29;;;;;;;30.20;20.80;;;6.10;99.90;;;;;;5009354;28;20448;-36
2021/11/26 05:04:55;;;;;;;30.50;20.87;;;6.20;99.90;;;;;;5015728;28;20474;-36
2021/11/26 05:07:22;;;;;;;29.80;20.40;;;6.30;99.90;;;;;;5009273;28;20271;-36
2021/11/26 05:09:48;;;;;;;35.70;23.10;;;6.20;99.90;;;;;;5016084;28;20305;-36
2021/11/26 05:12:14;;;;;;;31.63;20.07;;;6.00;99.90;;;;;;5014021;28;20508;-36
2021/11/26 05:14:40;;;;;;;30.20;19.83;;;6.30;99.90;;;;;;5027538;28;20193;-36
2021/11/26 05:17:05;;;;;;;31.47;21.47;;;6.20;99.90;;;;;;5007813;28;20777;-36
2021/11/26 05:19:32;;;;;;;25.23;20.10;;;6.20;99.90;;;;;;5013635;28;20198;-37
2021/11/26 05:21:57;;;;;;;27.50;20.03;;;6.20;99.90;;;;;;5008963;28;20650;-36
2021/11/26 05:24:23;;;;;;;29.73;20.20;;;6.10;99.90;;;;;;5010784;28;20461;-36
2021/11/26 05:26:49;;;;;;;27.10;19.27;;;6.00;99.90;;;;;;5015467;28;20187;-36
2021/11/26 05:29:14;;;;;;;29.27;18.87;;;5.90;99.90;;;;;;5017585;28;20594;-36
2021/11/26 05:31:40;;;;;;;25.53;19.70;;;5.90;99.90;;;;;;5008447;28;20187;-36
2021/11/26 05:34:07;;;;;;;27.60;19.53;;;6.00;99.90;;;;;;5008998;28;20290;-36
2021/11/26 05:36:35;;;;;;;27.70;18.03;;;6.00;99.90;;;;;;5007375;28;20191;-36
2021/11/26 05:39:02;;;;;;;28.40;18.10;;;6.10;99.90;;;;;;5006805;28;20435;-36
2021/11/26 05:41:28;;;;;;;23.70;18.30;;;6.00;99.90;;;;;;5019945;28;20441;-36
2021/11/26 05:43:54;;;;;;;28.50;20.17;;;6.00;99.90;;;;;;5016549;28;20468;-36
2021/11/26 05:46:19;;;;;;;24.80;17.23;;;5.80;99.90;;;;;;5008263;28;20274;-36
2021/11/26 05:48:45;;;;;;;25.13;17.07;;;5.90;99.90;;;;;;5015747;28;20214;-36
2021/11/26 05:51:11;;;;;;;23.20;17.50;;;5.90;99.90;;;;;;5023191;28;20198;-36
2021/11/26 05:53:36;;;;;;;25.27;18.03;;;5.90;99.90;;;;;;5018197;28;20616;-36
2021/11/26 05:56:02;;;;;;;26.00;16.53;;;5.90;99.90;;;;;;5024234;28;20224;-36
2021/11/26 05:58:28;;;;;;;19.03;15.67;;;6.10;99.90;;;;;;5024198;28;20222;-36
2021/11/26 06:00:55;;;;;;;25.73;16.27;;;6.00;99.90;;;;;;5020482;28;20440;-36
2021/11/26 06:03:21;;;;;;;21.80;15.27;;;6.00;99.90;;;;;;5011803;28;20673;-36
2021/11/26 06:05:46;;;;;;;22.20;15.47;;;6.00;99.90;;;;;;5017358;28;20458;-36
2021/11/26 06:08:12;;;;;;;22.87;14.67;;;5.90;99.90;;;;;;5033641;28;20519;-36
2021/11/26 06:10:38;;;;;;;21.23;15.33;;;5.90;99.90;;;;;;5011288;28;20187;-36
2021/11/26 06:13:03;;;;;;;21.33;15.10;;;6.00;99.90;;;;;;5022151;28;20198;-36
2021/11/26 06:15:29;;;;;;;21.27;14.57;;;5.90;99.90;;;;;;5016599;28;20556;-36
2021/11/26 06:17:56;;;;;;;21.23;15.13;;;5.90;99.90;;;;;;5008246;28;20580;-36
2021/11/26 06:20:22;;;;;;;20.10;14.07;;;6.00;99.90;;;;;;5008135;28;20430;-36
2021/11/26 06:22:48;;;;;;;17.63;12.87;;;5.80;99.90;;;;;;5007212;28;20434;-36
2021/11/26 06:25:16;;;;;;;20.27;14.03;;;5.90;99.90;;;;;;5011354;28;20417;-36
2021/11/26 06:27:43;;;;;;;20.80;13.80;;;6.00;99.90;;;;;;5017095;28;20421;-36
2021/11/26 06:30:11;;;;;;;19.17;13.00;;;6.00;99.90;;;;;;5015421;28;20995;-36
2021/11/26 06:32:38;;;;;;;17.13;11.67;;;5.90;99.90;;;;;;5007853;28;20433;-36
2021/11/26 06:35:04;;;;;;;14.57;11.30;;;6.00;99.90;;;;;;5016840;28;20501;-36
2021/11/26 06:37:29;;;;;;;15.20;10.07;;;5.90;99.90;;;;;;5023989;28;20562;-36
2021/11/26 06:39:55;;;;;;;11.33;8.53;;;5.90;99.90;;;;;;5026922;28;20437;-36
2021/11/26 06:42:22;;;;;;;12.07;9.47;;;5.70;99.90;;;;;;5031482;28;20190;-36
2021/11/26 06:44:48;;;;;;;10.00;8.30;;;5.80;99.90;;;;;;5039720;28;20554;-36
2021/11/26 06:47:14;;;;;;;11.50;8.83;;;5.70;99.90;;;;;;5033272;28;20470;-36
2021/11/26 06:49:40;;;;;;;13.27;9.00;;;6.00;99.90;;;;;;5033679;28;20425;-36
2021/11/26 06:52:05;;;;;;;10.73;7.53;;;5.90;99.90;;;;;;5026211;28;20183;-36
2021/11/26 06:54:31;;;;;;;12.93;8.63;;;5.90;99.90;;;;;;5024781;28;20186;-36
2021/11/26 06:56:57;;;;;;;9.17;6.77;;;6.00;99.90;;;;;;5020990;28;20494;-36
2021/11/26 06:59:22;;;;;;;10.87;7.60;;;5.80;99.90;;;;;;5022912;28;20241;-36
2021/11/26 07:01:48;;;;;;;13.50;8.20;;;5.60;99.90;;;;;;5013136;28;20195;-36
2021/11/26 07:04:14;;;;;;;11.50;8.33;;;5.70;99.90;;;;;;5007920;28;20218;-36
2021/11/26 07:06:40;;;;;;;10.57;7.53;;;5.90;99.90;;;;;;5014076;28;20183;-36
2021/11/26 07:09:06;;;;;;;11.73;7.40;;;5.90;99.90;;;;;;5018730;28;20685;-36
2021/11/26 07:11:32;;;;;;;11.23;8.10;;;5.80;99.90;;;;;;5014793;28;20211;-36
2021/11/26 07:13:58;;;;;;;11.00;8.10;;;5.90;99.90;;;;;;5010263;28;20422;-36
2021/11/26 07:16:23;;;;;;;8.77;7.10;;;5.90;99.90;;;;;;5007921;28;20570;-36
2021/11/26 07:18:49;;;;;;;10.33;8.33;;;5.70;99.90;;;;;;5011340;28;20231;-36
2021/11/26 07:21:15;;;;;;;9.90;7.57;;;5.70;99.90;;;;;;5012471;28;20297;-37
2021/11/26 07:23:41;;;;;;;9.67;8.30;;;5.80;99.90;;;;;;5005022;28;20218;-37
2021/11/26 07:26:07;;;;;;;9.20;7.63;;;5.60;99.90;;;;;;5014633;28;20195;-36
2021/11/26 07:28:33;;;;;;;9.77;7.50;;;5.70;99.90;;;;;;5014075;28;20417;-36
2021/11/26 07:30:58;;;;;;;12.23;8.53;;;5.80;99.90;;;;;;5011679;28;20425;-36
2021/11/26 07:33:24;;;;;;;10.20;7.80;;;5.80;99.90;;;;;;5006916;28;20325;-36
2021/11/26 07:35:50;;;;;;;11.67;7.80;;;5.70;99.90;;;;;;5013963;28;20452;-36
2021/11/26 07:38:16;;;;;;;11.40;8.50;;;5.80;99.90;;;;;;5007026;28;20987;-36
2021/11/26 07:40:42;;;;;;;11.73;8.83;;;5.60;99.90;;;;;;5012897;28;20429;-36
2021/11/26 07:43:07;;;;;;;10.57;8.50;;;5.60;99.90;;;;;;5016838;28;20213;-36
2021/11/26 07:45:34;;;;;;;11.20;8.77;;;5.70;99.90;;;;;;5030106;28;20261;-36
2021/11/26 07:48:00;;;;;;;9.17;7.87;;;5.60;99.90;;;;;;5010876;28;20418;-36
2021/11/26 07:50:26;;;;;;;10.97;8.40;;;5.90;99.90;;;;;;5012624;28;20424;-36
2021/11/26 07:52:51;;;;;;;11.53;7.77;;;5.90;99.90;;;;;;5010249;28;20418;-36
2021/11/26 07:55:17;;;;;;;13.10;8.10;;;5.80;99.90;;;;;;5010928;28;20218;-36
2021/11/26 07:57:44;;;;;;;11.60;8.77;;;5.80;99.90;;;;;;5016568;28;20437;-36
2021/11/26 08:00:12;;;;;;;12.60;8.57;;;6.00;99.90;;;;;;5020971;28;20208;-36
2021/11/26 08:02:38;;;;;;;11.80;8.50;;;5.90;99.90;;;;;;5010523;28;20798;-37
2021/11/26 08:05:04;;;;;;;12.90;8.43;;;5.90;99.90;;;;;;5021305;28;20432;-36
2021/11/26 08:07:30;;;;;;;9.80;8.30;;;5.80;99.90;;;;;;5010341;28;20426;-36
2021/11/26 08:09:56;;;;;;;11.77;7.90;;;5.80;99.90;;;;;;5009928;28;20430;-36
2021/11/26 08:12:22;;;;;;;11.10;8.07;;;5.90;99.90;;;;;;5021785;28;20194;-36
2021/11/26 08:14:50;;;;;;;12.40;9.00;;;5.90;99.90;;;;;;5016836;28;20662;-36
2021/11/26 08:17:16;;;;;;;12.40;8.43;;;5.80;99.90;;;;;;5017819;28;20187;-36
2021/11/26 08:19:42;;;;;;;16.17;8.47;;;5.90;99.90;;;;;;5017532;28;20417;-36
2021/11/26 08:22:08;;;;;;;11.00;7.97;;;6.10;99.90;;;;;;5009997;28;20436;-36
2021/11/26 08:24:33;;;;;;;11.57;7.77;;;6.00;99.90;;;;;;5010328;28;20265;-36
2021/11/26 08:26:59;;;;;;;10.17;7.60;;;5.90;99.90;;;;;;5031484;28;20660;-36
2021/11/26 08:29:25;;;;;;;10.40;7.67;;;5.90;99.90;;;;;;5037320;28;20201;-36
2021/11/26 08:31:51;;;;;;;11.27;8.60;;;6.00;99.90;;;;;;5021827;28;20587;-36
2021/11/26 08:34:17;;;;;;;13.63;9.00;;;5.80;99.90;;;;;;5013333;28;20194;-36
2021/11/26 08:36:43;;;;;;;10.50;8.30;;;6.00;99.90;;;;;;5009497;28;20982;-36
2021/11/26 08:39:09;;;;;;;14.63;9.87;;;5.90;99.90;;;;;;5034909;28;20774;-36
2021/11/26 08:41:35;;;;;;;11.47;8.27;;;5.60;99.90;;;;;;5012943;28;20263;-36
2021/11/26 08:44:02;;;;;;;15.90;9.90;;;5.70;99.90;;;;;;5025431;28;20908;-36
2021/11/26 08:46:28;;;;;;;13.00;8.73;;;5.80;99.90;;;;;;5021605;28;20190;-36
2021/11/26 08:48:53;;;;;;;13.93;8.73;;;5.90;99.90;;;;;;5021975;28;20429;-36
2021/11/26 08:51:22;;;;;;;14.67;9.87;;;5.70;99.90;;;;;;5021347;28;20672;-36
2021/11/26 08:53:48;;;;;;;16.23;9.87;;;5.80;99.90;;;;;;5008703;28;20214;-36
2021/11/26 08:56:16;;;;;;;12.47;9.90;;;5.90;99.90;;;;;;5010359;28;20971;-37
2021/11/26 08:58:45;;;;;;;16.50;10.27;;;5.80;99.90;;;;;;5014989;28;20202;-36
2021/11/26 09:01:11;;;;;;;16.27;10.20;;;6.00;99.90;;;;;;5016811;28;20438;-36
2021/11/26 09:03:37;;;;;;;16.53;10.53;;;5.70;99.90;;;;;;5008403;28;20929;-36
2021/11/26 09:06:04;;;;;;;15.73;9.63;;;5.90;99.90;;;;;;5017081;28;20421;-36
2021/11/26 09:08:30;;;;;;;19.23;11.63;;;5.90;99.90;;;;;;5009189;28;20183;-36
2021/11/26 09:10:56;;;;;;;19.20;11.33;;;5.80;99.90;;;;;;5011307;28;20677;-36
2021/11/26 09:13:23;;;;;;;15.90;10.33;;;5.80;99.90;;;;;;5020056;28;20567;-36
2021/11/26 09:15:49;;;;;;;17.80;11.37;;;6.00;99.90;;;;;;5023944;28;21023;-36
2021/11/26 09:18:16;;;;;;;16.47;10.90;;;6.00;99.90;;;;;;5013217;28;20426;-36
2021/11/26 09:20:43;;;;;;;14.97;11.07;;;6.00;99.90;;;;;;5012361;28;20871;-36
2021/11/26 09:23:10;;;;;;;16.40;10.90;;;6.00;99.90;;;;;;5008625;28;20516;-36
2021/11/26 09:25:37;;;;;;;18.77;12.07;;;6.00;99.90;;;;;;4997719;28;20426;-36
2021/11/26 09:28:04;;;;;;;16.47;10.23;;;6.10;99.90;;;;;;5024786;28;20445;-36
2021/11/26 09:30:31;;;;;;;16.00;10.37;;;6.00;99.90;;;;;;5023479;28;20436;-36
2021/11/26 09:32:57;;;;;;;18.43;11.10;;;5.80;99.90;;;;;;5011238;28;20425;-36
2021/11/26 09:35:25;;;;;;;17.60;10.33;;;6.10;99.90;;;;;;5008364;28;20418;-36
2021/11/26 09:37:51;;;;;;;19.07;9.60;;;5.90;99.90;;;;;;5008852;28;20422;-36
2021/11/26 09:40:18;;;;;;;14.13;10.00;;;6.10;99.90;;;;;;5007663;28;20426;-36
2021/11/26 09:42:45;;;;;;;19.13;11.03;;;6.00;99.90;;;;;;5011541;28;20426;-36
2021/11/26 09:45:16;;;;;;;16.83;10.60;;;5.90;99.90;;;;;;5019299;28;20476;-36
2021/11/26 09:47:42;;;;;;;15.97;11.27;;;6.10;99.90;;;;;;5010615;28;20597;-36
2021/11/26 09:50:09;;;;;;;15.80;10.50;;;6.10;99.90;;;;;;5015333;28;20417;-36
2021/11/26 09:52:39;;;;;;;23.57;11.70;;;6.00;99.90;;;;;;5010128;28;20449;-36
2021/11/26 09:55:07;;;;;;;14.40;9.60;;;6.20;99.90;;;;;;5007806;28;20429;-37
2021/11/26 09:57:32;;;;;;;15.93;10.53;;;6.10;99.90;;;;;;5020574;28;20971;-37
2021/11/26 09:59:58;;;;;;;18.70;9.80;;;6.00;99.90;;;;;;5020797;28;20464;-36
2021/11/26 10:02:25;;;;;;;14.57;9.80;;;6.20;99.90;;;;;;5020410;28;20484;-36
2021/11/26 10:05:02;;;;;;;12.70;8.53;;;6.20;99.90;;;;;;5011332;28;20221;-37
2021/11/26 10:07:28;;;;;;;13.93;8.90;;;6.10;99.90;;;;;;5008335;28;20453;-36
2021/11/26 10:10:06;;;;;;;13.17;8.20;;;6.20;99.90;;;;;;5008291;28;20442;-36
2021/11/26 10:12:32;;;;;;;17.27;8.13;;;6.00;99.90;;;;;;5015494;28;20183;-36
2021/11/26 10:14:58;;;;;;;17.60;8.50;;;6.10;99.90;;;;;;5017484;28;20432;-36
2021/11/26 10:17:25;;;;;;;14.80;8.77;;;6.00;99.90;;;;;;5010589;28;20252;-36
2021/11/26 10:19:54;;;;;;;12.30;7.33;;;6.10;99.90;;;;;;5009762;28;20190;-36
2021/11/26 10:22:36;;;;;;;12.03;7.43;;;6.10;99.90;;;;;;5007890;28;20586;-36
2021/11/26 10:25:09;;;;;;;12.07;7.70;;;6.10;99.90;;;;;;5007721;28;20505;-36
2021/11/26 10:27:57;;;;;;;15.00;8.00;;;6.00;99.90;;;;;;5010268;28;20433;-37
2021/11/26 10:30:39;;;;;;;11.50;7.87;;;6.20;99.90;;;;;;5016764;28;20794;-36
2021/11/26 10:33:09;;;;;;;13.03;7.27;;;6.10;99.90;;;;;;5010163;28;20517;-36
2021/11/26 10:35:45;;;;;;;13.63;7.20;;;6.10;99.90;;;;;;5015386;28;20428;-36
2021/11/26 10:38:14;;;;;;;14.83;6.57;;;6.00;99.90;;;;;;5009246;28;20453;-36
2021/11/26 10:40:44;;;;;;;10.53;6.73;;;6.10;99.90;;;;;;5005574;28;20437;-37
2021/11/26 10:43:18;;;;;;;12.30;7.00;;;6.10;99.90;;;;;;5016922;28;20465;-36
2021/11/26 10:46:04;;;;;;;18.70;7.93;;;6.20;99.90;;;;;;5020795;28;20421;-36
2021/11/26 10:48:47;;;;;;;10.83;7.40;;;6.00;99.90;;;;;;5007389;28;20458;-36
2021/11/26 10:59:28;;;;;;;17.17;8.47;;;5.70;99.90;;;;;;5018705;28;20428;-36
2021/11/26 11:01:55;;;;;;;14.47;8.57;;;5.70;99.90;;;;;;5022306;28;20453;-36
2021/11/26 11:04:22;;;;;;;11.83;7.00;;;5.70;99.90;;;;;;5006678;28;20516;-36
2021/11/26 11:07:02;;;;;;;12.10;7.43;;;5.80;99.90;;;;;;5007635;28;20871;-36
2021/11/26 11:09:38;;;;;;;13.37;10.77;;;6.00;99.90;;;;;;5007373;28;20426;-36
2021/11/26 11:12:04;;;;;;;17.73;7.60;;;5.90;99.90;;;;;;5008133;28;20436;-36
2021/11/26 11:14:30;;;;;;;14.00;7.47;;;5.90;99.90;;;;;;5018617;28;20444;-36
2021/11/26 11:16:56;;;;;;;14.00;7.53;;;5.80;99.90;;;;;;5019972;28;20429;-36
2021/11/26 11:19:24;;;;;;;18.00;7.17;;;6.00;99.90;;;;;;5011308;28;20198;-36
2021/11/26 11:21:51;;;;;;;10.77;6.40;;;5.90;99.90;;;;;;5020928;28;20465;-36
2021/11/26 11:24:18;;;;;;;14.30;9.17;;;5.70;99.90;;;;;;5010868;28;20808;-36
2021/11/26 11:26:46;;;;;;;11.30;6.57;;;5.80;99.90;;;;;;5012305;28;20524;-36
2021/11/26 11:29:22;;;;;;;11.27;6.80;;;5.80;99.90;;;;;;5021974;28;20485;-36
2021/11/26 11:31:48;;;;;;;11.63;7.60;;;5.80;99.90;;;;;;5018592;28;21157;-36
2021/11/26 11:34:20;;;;;;;15.90;6.90;;;5.70;99.90;;;;;;5008858;28;20430;-36
2021/11/26 11:36:47;;;;;;;14.77;8.07;;;5.90;99.90;;;;;;5017025;28;20464;-36
2021/11/26 11:39:12;;;;;;;8.53;5.60;;;5.80;99.90;;;;;;5009749;28;20964;-36
2021/11/26 11:41:44;;;;;;;11.13;5.20;;;5.80;99.90;;;;;;5010886;28;20461;-36
2021/11/26 11:44:26;;;;;;;8.70;5.70;;;5.90;99.90;;;;;;5023914;28;20501;-36
2021/11/26 11:46:52;;;;;;;9.57;5.60;;;6.00;99.90;;;;;;5028053;28;20776;-36
2021/11/26 11:49:32;;;;;;;13.37;6.10;;;6.10;99.90;;;;;;5013091;28;20444;-36
2021/11/26 11:52:02;;;;;;;9.00;7.00;;;5.90;99.90;;;;;;5012848;28;20198;-36
2021/11/26 11:54:44;;;;;;;12.40;6.63;;;6.00;99.90;;;;;;5010214;28;20955;-36
2021/11/26 11:57:26;;;;;;;14.63;7.27;;;6.20;99.90;;;;;;5011614;28;20463;-36
2021/11/26 12:00:06;;;;;;;10.77;6.70;;;5.90;99.90;;;;;;5024620;28;20421;-36
2021/11/26 12:02:32;;;;;;;12.50;7.03;;;6.10;99.90;;;;;;5010644;28;20437;-36
2021/11/26 12:04:57;;;;;;;15.23;7.80;;;6.20;99.90;;;;;;5009917;28;20534;-36
2021/11/26 12:07:29;;;;;;;10.67;6.63;;;6.10;99.90;;;;;;5019443;28;20278;-36
2021/11/26 12:10:12;;;;;;;15.67;7.30;;;6.10;99.90;;;;;;5010559;28;20203;-36
2021/11/26 12:12:52;;;;;;;13.43;7.33;;;6.40;99.90;;;;;;5010089;28;20430;-36
2021/11/26 12:15:34;;;;;;;13.10;6.80;;;6.40;99.90;;;;;;5014916;28;20478;-36
2021/11/26 12:18:05;;;;;;;12.30;6.30;;;6.20;99.90;;;;;;5014200;28;20426;-36
2021/11/26 12:20:33;;;;;;;10.37;6.13;;;6.20;99.90;;;;;;5012143;28;20513;-36
2021/11/26 12:23:11;;;;;;;9.47;5.37;;;6.10;99.90;;;;;;5013290;28;20448;-36
2021/11/26 12:26:07;;;;;;;12.57;5.23;;;6.20;99.90;;;;;;5009223;28;20468;-36
2021/11/26 12:28:24;;;;;;;12.30;5.90;;;6.40;99.90;;;;;;5017616;28;20496;-36
2021/11/26 12:31:05;;;;;;;10.80;5.23;;;6.30;99.90;;;;;;5019845;28;20730;-36
2021/11/26 12:33:32;;;;;;;8.17;5.57;;;6.30;99.90;;;;;;5009291;28;20488;-36
2021/11/26 12:35:59;;;;;;;7.87;5.30;;;6.10;99.90;;;;;;5012426;28;20471;-36
2021/11/26 12:38:46;;;;;;;9.87;5.83;;;6.30;99.90;;;;;;5008875;28;20506;-36
2021/11/26 12:41:14;;;;;;;10.93;6.10;;;6.20;99.90;;;;;;5009742;28;20499;-36
2021/11/26 12:43:45;;;;;;;8.77;5.30;;;6.40;99.90;;;;;;5014407;28;20469;-36
2021/11/26 12:46:31;;;;;;;8.77;4.33;;;6.50;99.90;;;;;;5025688;28;20414;-36
2021/11/26 12:52:05;;;;;;;11.30;5.50;;;6.50;99.90;;;;;;5019424;28;20769;-36
2021/11/26 12:54:39;;;;;;;11.40;4.50;;;6.40;99.90;;;;;;5008937;28;20464;-36